Time;durP1;ratioP1;P1;durP2;ratioP2;P2;SDS_P1;SDS_P2;PMS_P1;PMS_P2;Temp;Humidity;BMP_temperature;BMP_pressure;BME280_temperature;BME280_humidity;BME280_pressure;Samples;Min_cycle;Max_cycle;Signal;HPM_P1;HPM_P2
2024/02/17 00:02:16;;;;;;;27.17;14.40;;;10.00;99.90;;;;;;4993649;28;20141;-89
2024/02/17 00:04:42;;;;;;;27.15;14.15;;;10.10;99.90;;;;;;4993334;28;20494;-89
2024/02/17 00:07:07;;;;;;;28.98;16.50;;;10.00;99.90;;;;;;4993706;28;20034;-90
2024/02/17 00:09:34;;;;;;;22.83;13.65;;;10.00;99.90;;;;;;4993883;28;20015;-90
2024/02/17 00:12:00;;;;;;;26.65;13.90;;;10.00;99.90;;;;;;4994209;28;20038;-90
2024/02/17 00:14:25;;;;;;;24.95;13.63;;;10.00;99.90;;;;;;4992873;28;20022;-90
2024/02/17 00:16:51;;;;;;;28.27;13.63;;;10.00;99.90;;;;;;4984688;28;20042;-90
2024/02/17 00:19:17;;;;;;;24.20;13.48;;;10.00;99.90;;;;;;4993441;28;20022;-90
2024/02/17 00:21:43;;;;;;;25.85;13.20;;;10.00;99.90;;;;;;4994831;28;20037;-90
2024/02/17 00:24:09;;;;;;;27.17;13.20;;;10.10;99.90;;;;;;4994974;28;20026;-90
2024/02/17 00:26:34;;;;;;;30.50;13.98;;;10.00;99.90;;;;;;4994027;28;20085;-90
2024/02/17 00:29:00;;;;;;;24.85;13.13;;;10.10;99.90;;;;;;4992915;28;20513;-89
2024/02/17 00:31:26;;;;;;;21.58;12.93;;;10.00;99.90;;;;;;4989565;28;20026;-90
2024/02/17 00:33:52;;;;;;;24.10;12.27;;;10.00;99.90;;;;;;4994047;28;20532;-90
2024/02/17 00:36:18;;;;;;;23.85;13.65;;;10.00;99.90;;;;;;4995870;28;20030;-89
2024/02/17 00:38:44;;;;;;;26.67;13.75;;;10.00;99.90;;;;;;4992289;28;20022;-89
2024/02/17 00:41:10;;;;;;;31.70;14.43;;;10.00;99.90;;;;;;4993295;28;20061;-90
2024/02/17 00:43:35;;;;;;;26.65;13.25;;;10.00;99.90;;;;;;4994119;28;20018;-90
2024/02/17 00:46:01;;;;;;;26.45;14.13;;;10.00;99.90;;;;;;4990174;28;20042;-89
2024/02/17 00:48:27;;;;;;;26.98;13.80;;;10.00;99.90;;;;;;4994492;28;20088;-89
2024/02/17 00:50:53;;;;;;;22.02;12.75;;;10.00;99.90;;;;;;4993084;28;20477;-90
2024/02/17 00:53:18;;;;;;;27.50;12.90;;;10.00;99.90;;;;;;4995377;28;20486;-90
2024/02/17 00:55:44;;;;;;;35.47;14.48;;;10.00;99.90;;;;;;4997159;28;20088;-89
2024/02/17 00:58:09;;;;;;;28.42;14.27;;;9.90;99.90;;;;;;4997669;28;20390;-89
2024/02/17 01:00:36;;;;;;;27.58;15.07;;;9.90;99.90;;;;;;4996640;28;20041;-90
2024/02/17 01:03:05;;;;;;;28.80;14.35;;;10.00;99.90;;;;;;4997821;28;20022;-90
2024/02/17 01:05:30;;;;;;;23.08;12.93;;;9.90;99.90;;;;;;4997305;28;20575;-90
2024/02/17 01:07:56;;;;;;;25.23;14.73;;;9.90;99.90;;;;;;4997595;28;20054;-90
2024/02/17 01:10:21;;;;;;;28.50;13.77;;;9.90;99.90;;;;;;4997984;28;20483;-89
2024/02/17 01:12:47;;;;;;;25.38;13.60;;;9.90;99.90;;;;;;4996881;28;20058;-89
2024/02/17 01:15:13;;;;;;;28.00;14.20;;;9.90;99.90;;;;;;4997310;28;20578;-89
2024/02/17 01:17:40;;;;;;;28.67;15.73;;;9.90;99.90;;;;;;4996775;28;20045;-89
2024/02/17 01:20:06;;;;;;;33.20;15.95;;;9.90;99.90;;;;;;4997015;28;20034;-89
2024/02/17 01:22:32;;;;;;;32.70;14.93;;;9.90;99.90;;;;;;4995104;28;20042;-90
2024/02/17 01:24:57;;;;;;;28.23;14.82;;;9.90;99.90;;;;;;4994191;28;20033;-89
2024/02/17 01:27:23;;;;;;;30.90;16.45;;;9.90;99.90;;;;;;4996241;28;20038;-90
2024/02/17 01:29:48;;;;;;;31.70;15.10;;;9.90;99.90;;;;;;4996648;28;20030;-90
2024/02/17 01:32:14;;;;;;;27.52;14.57;;;9.90;99.90;;;;;;4996897;28;20045;-89
2024/02/17 01:34:39;;;;;;;28.55;15.55;;;9.80;99.90;;;;;;4996956;28;20065;-89
2024/02/17 01:37:05;;;;;;;32.75;15.38;;;9.80;99.90;;;;;;4997108;28;20048;-89
2024/02/17 01:39:30;;;;;;;28.15;15.48;;;9.80;99.90;;;;;;4995950;28;20163;-89
2024/02/17 01:41:56;;;;;;;28.33;14.32;;;9.80;99.90;;;;;;4979318;28;20045;-89
2024/02/17 01:44:22;;;;;;;33.05;16.73;;;9.80;99.90;;;;;;4978406;28;20070;-89
2024/02/17 01:46:50;;;;;;;24.77;13.98;;;9.80;99.90;;;;;;4979628;28;20041;-89
2024/02/17 01:49:16;;;;;;;28.20;15.52;;;9.80;99.90;;;;;;4981311;28;20073;-89
2024/02/17 01:51:43;;;;;;;27.92;14.80;;;9.80;99.90;;;;;;4997084;28;20026;-89
2024/02/17 01:54:09;;;;;;;28.70;16.45;;;9.80;99.90;;;;;;4994136;28;20027;-89
2024/02/17 01:56:36;;;;;;;29.45;14.90;;;9.80;99.90;;;;;;4980367;28;20486;-89
2024/02/17 01:59:02;;;;;;;27.60;15.25;;;9.80;99.90;;;;;;4980334;28;20018;-89
2024/02/17 02:01:29;;;;;;;26.42;14.60;;;9.80;99.90;;;;;;4996950;28;20030;-88
2024/02/17 02:03:54;;;;;;;30.17;15.40;;;9.70;99.90;;;;;;4987899;28;20007;-88
2024/02/17 02:06:22;;;;;;;28.73;15.80;;;9.80;99.90;;;;;;4995612;28;20053;-90
2024/02/17 02:08:49;;;;;;;31.45;15.35;;;9.80;99.90;;;;;;4981482;28;20094;-90
2024/02/17 02:11:15;;;;;;;30.60;15.95;;;9.70;99.90;;;;;;4981330;28;20034;-89
2024/02/17 02:13:41;;;;;;;24.05;14.98;;;9.70;99.90;;;;;;4972956;28;20046;-90
2024/02/17 02:16:06;;;;;;;34.00;17.00;;;9.70;99.90;;;;;;4979594;28;20486;-89
2024/02/17 02:18:33;;;;;;;31.20;16.42;;;9.70;99.90;;;;;;4979903;28;20018;-89
2024/02/17 02:20:59;;;;;;;27.63;15.48;;;9.70;99.90;;;;;;4979573;28;20050;-90
2024/02/17 02:23:25;;;;;;;34.83;16.05;;;9.70;99.90;;;;;;4979670;28;20482;-89
2024/02/17 02:25:54;;;;;;;26.52;16.17;;;9.70;99.90;;;;;;4980227;28;20050;-89
2024/02/17 02:28:21;;;;;;;31.90;16.35;;;9.70;99.90;;;;;;4979499;28;20042;-90
2024/02/17 02:30:46;;;;;;;31.10;16.17;;;9.70;99.90;;;;;;4979489;28;20030;-90
2024/02/17 02:33:12;;;;;;;27.80;15.38;;;9.60;99.90;;;;;;4980342;28;20045;-89
2024/02/17 02:35:38;;;;;;;33.00;16.20;;;9.60;99.90;;;;;;4993515;28;20022;-89
2024/02/17 02:38:04;;;;;;;33.88;15.77;;;9.60;99.90;;;;;;4979774;28;20031;-90
2024/02/17 02:40:29;;;;;;;33.83;16.98;;;9.60;99.90;;;;;;4970921;28;20511;-90
2024/02/17 02:42:56;;;;;;;28.88;16.08;;;9.70;99.90;;;;;;4959403;28;20046;-90
2024/02/17 02:45:22;;;;;;;33.05;17.00;;;9.70;99.90;;;;;;4949947;28;20033;-90
2024/02/17 02:47:47;;;;;;;28.65;15.90;;;9.70;99.90;;;;;;4960547;28;20030;-90
2024/02/17 02:50:13;;;;;;;33.40;16.70;;;9.70;99.90;;;;;;4960593;28;20038;-90
2024/02/17 02:52:39;;;;;;;30.73;17.33;;;9.70;99.90;;;;;;4961015;28;20463;-90
2024/02/17 02:55:05;;;;;;;27.30;15.75;;;9.70;99.90;;;;;;4972521;28;20585;-89
2024/02/17 02:57:31;;;;;;;26.92;15.82;;;9.70;99.90;;;;;;4956325;28;20027;-89
2024/02/17 03:00:00;;;;;;;28.63;15.95;;;9.70;99.90;;;;;;4960425;28;20078;-90
2024/02/17 03:02:26;;;;;;;30.02;17.10;;;9.70;99.90;;;;;;4960049;28;20027;-89
2024/02/17 03:04:54;;;;;;;28.42;15.70;;;9.70;99.90;;;;;;4960798;28;20031;-89
2024/02/17 03:07:20;;;;;;;31.48;16.42;;;9.80;99.90;;;;;;4948456;28;20043;-89
2024/02/17 03:09:45;;;;;;;33.50;17.50;;;9.70;99.90;;;;;;4976711;28;20026;-90
2024/02/17 03:12:11;;;;;;;31.85;16.70;;;9.70;99.90;;;;;;4959353;28;20038;-89
2024/02/17 03:14:39;;;;;;;30.08;17.42;;;9.70;99.90;;;;;;4961289;28;20031;-88
2024/02/17 03:17:05;;;;;;;33.72;17.08;;;9.70;99.90;;;;;;4963651;28;20062;-89
2024/02/17 03:19:31;;;;;;;31.40;17.00;;;9.70;99.90;;;;;;4959900;28;20459;-89
2024/02/17 03:21:56;;;;;;;34.30;17.05;;;9.70;99.90;;;;;;4959226;28;20023;-89
2024/02/17 03:24:22;;;;;;;39.72;17.23;;;9.70;99.90;;;;;;4959974;28;20030;-89
2024/02/17 03:26:49;;;;;;;32.63;15.55;;;9.70;99.90;;;;;;4958891;28;20043;-89
2024/02/17 03:29:15;;;;;;;28.70;16.23;;;9.70;99.90;;;;;;4959372;28;20122;-89
2024/02/17 03:31:40;;;;;;;34.28;17.13;;;9.70;99.90;;;;;;4959642;28;20062;-89
2024/02/17 03:34:06;;;;;;;31.92;17.13;;;9.70;99.90;;;;;;4959138;28;20122;-89
2024/02/17 03:36:33;;;;;;;34.45;17.30;;;9.70;99.90;;;;;;4959469;28;20039;-88
2024/02/17 03:38:59;;;;;;;34.72;16.85;;;9.70;99.90;;;;;;4959836;28;20033;-89
2024/02/17 03:41:26;;;;;;;28.75;16.75;;;9.70;99.90;;;;;;4959934;28;20133;-90
2024/02/17 03:43:52;;;;;;;26.55;14.98;;;9.70;99.90;;;;;;4963088;28;20037;-89
2024/02/17 03:46:18;;;;;;;39.80;16.35;;;9.70;99.90;;;;;;4959175;28;20030;-89
2024/02/17 03:48:43;;;;;;;29.08;16.83;;;9.70;99.90;;;;;;4955441;28;20027;-89
2024/02/17 03:51:09;;;;;;;35.55;17.38;;;9.70;99.90;;;;;;4959652;28;20269;-89
2024/02/17 03:53:35;;;;;;;35.88;16.08;;;9.70;99.90;;;;;;4959351;28;20047;-88
2024/02/17 03:56:01;;;;;;;37.22;16.77;;;9.70;99.90;;;;;;4959225;28;20022;-88
2024/02/17 03:58:27;;;;;;;32.20;16.23;;;9.70;99.90;;;;;;4975200;28;20033;-89
2024/02/17 04:00:53;;;;;;;28.30;16.55;;;9.70;99.90;;;;;;4959478;28;20026;-89
2024/02/17 04:03:18;;;;;;;27.17;15.57;;;9.70;99.90;;;;;;4959307;28;20027;-89
2024/02/17 04:05:44;;;;;;;24.67;15.55;;;9.70;99.90;;;;;;4952524;28;20494;-89
2024/02/17 04:08:09;;;;;;;31.00;16.05;;;9.70;99.90;;;;;;4954545;28;20570;-89
2024/02/17 04:10:35;;;;;;;33.40;16.30;;;9.80;99.90;;;;;;4959852;28;20050;-90
2024/02/17 04:13:04;;;;;;;26.88;15.82;;;9.80;99.90;;;;;;4958985;28;20027;-89
2024/02/17 04:15:29;;;;;;;35.40;17.55;;;9.80;99.90;;;;;;4955786;28;20130;-89
2024/02/17 04:17:55;;;;;;;30.48;15.90;;;9.80;99.90;;;;;;4958428;28;20054;-89
2024/02/17 04:20:21;;;;;;;28.25;14.93;;;9.80;99.90;;;;;;4958291;28;20034;-90
2024/02/17 04:22:46;;;;;;;24.73;14.60;;;9.70;99.90;;;;;;4958644;28;20066;-90
2024/02/17 04:25:12;;;;;;;26.13;14.57;;;9.80;99.90;;;;;;4959807;28;20097;-87
2024/02/17 04:27:38;;;;;;;29.75;15.32;;;9.80;99.90;;;;;;4969562;28;20119;-89
2024/02/17 04:30:04;;;;;;;28.90;15.82;;;9.80;99.90;;;;;;4980375;28;20037;-89
2024/02/17 04:32:30;;;;;;;29.63;16.38;;;9.80;99.90;;;;;;4965875;28;20411;-89
2024/02/17 04:34:56;;;;;;;29.27;15.23;;;9.80;99.90;;;;;;4963974;28;20031;-89
2024/02/17 04:37:21;;;;;;;29.92;17.08;;;9.80;99.90;;;;;;4964078;28;20041;-89
2024/02/17 04:39:47;;;;;;;30.50;15.73;;;9.80;99.90;;;;;;4963588;28;20145;-89
2024/02/17 04:42:13;;;;;;;28.23;15.20;;;9.80;99.90;;;;;;4982460;28;20058;-89
2024/02/17 04:44:38;;;;;;;31.23;16.15;;;9.80;99.90;;;;;;4982725;28;20034;-90
2024/02/17 04:47:04;;;;;;;31.08;16.83;;;9.80;99.90;;;;;;4982250;28;20136;-89
2024/02/17 04:49:30;;;;;;;30.27;17.33;;;9.80;99.90;;;;;;4982371;28;20030;-89
2024/02/17 04:51:55;;;;;;;28.00;15.77;;;9.90;99.90;;;;;;4981742;28;20045;-89
2024/02/17 04:54:21;;;;;;;28.90;15.85;;;9.80;99.90;;;;;;4981210;28;20033;-89
2024/02/17 04:56:46;;;;;;;30.70;16.00;;;9.80;99.90;;;;;;4978025;28;20386;-89
2024/02/17 04:59:12;;;;;;;30.88;14.30;;;9.80;99.90;;;;;;4981172;28;20022;-88
2024/02/17 05:01:38;;;;;;;29.33;16.98;;;9.90;99.90;;;;;;4976445;28;20113;-90
2024/02/17 05:04:03;;;;;;;36.60;16.83;;;9.80;99.90;;;;;;4977134;28;20022;-89
2024/02/17 05:06:29;;;;;;;33.47;18.00;;;9.80;99.90;;;;;;4985675;28;20656;-89
2024/02/17 05:08:55;;;;;;;40.30;16.52;;;9.80;99.90;;;;;;5001292;28;20030;-90
2024/02/17 05:11:20;;;;;;;27.27;14.90;;;9.80;99.90;;;;;;4995077;28;20022;-89
2024/02/17 05:13:46;;;;;;;32.13;16.23;;;9.80;99.90;;;;;;4978799;28;20022;-89
2024/02/17 05:16:11;;;;;;;29.77;16.80;;;9.80;99.90;;;;;;4976032;28;20133;-89
2024/02/17 05:18:37;;;;;;;35.00;17.42;;;9.80;99.90;;;;;;4971436;28;20045;-89
2024/02/17 05:21:03;;;;;;;27.98;15.40;;;9.80;99.90;;;;;;4980438;28;20479;-89
2024/02/17 05:23:29;;;;;;;30.73;16.52;;;9.80;99.90;;;;;;4977664;28;20038;-89
2024/02/17 05:25:55;;;;;;;25.45;15.90;;;9.80;99.90;;;;;;4977978;28;20093;-89
2024/02/17 05:28:21;;;;;;;25.17;14.35;;;9.80;99.90;;;;;;4980547;28;20028;-90
2024/02/17 05:30:50;;;;;;;24.40;15.88;;;9.80;99.90;;;;;;4980936;28;20034;-90
2024/02/17 05:33:15;;;;;;;31.88;15.63;;;9.80;99.90;;;;;;4979660;28;20489;-90
2024/02/17 05:35:41;;;;;;;27.35;15.57;;;9.80;99.90;;;;;;4981251;28;20058;-90
2024/02/17 05:38:06;;;;;;;33.45;16.48;;;9.80;99.90;;;;;;4976942;28;20114;-90
2024/02/17 05:40:32;;;;;;;32.83;14.98;;;9.70;99.90;;;;;;4985031;28;20050;-90
2024/02/17 05:42:58;;;;;;;38.08;16.38;;;9.80;99.90;;;;;;4989140;28;20034;-90
2024/02/17 05:45:25;;;;;;;32.78;15.43;;;9.80;99.90;;;;;;4980264;28;20026;-90
2024/02/17 05:47:50;;;;;;;29.27;15.73;;;9.80;99.90;;;;;;4997015;28;20034;-90
2024/02/17 05:50:16;;;;;;;25.30;14.85;;;9.80;99.90;;;;;;4997605;28;20026;-90
2024/02/17 05:52:42;;;;;;;22.85;14.45;;;9.80;99.90;;;;;;4997275;28;20030;-91
2024/02/17 05:55:08;;;;;;;24.95;14.85;;;9.70;99.90;;;;;;4996109;28;20117;-90
2024/02/17 05:57:33;;;;;;;24.15;14.20;;;9.80;99.90;;;;;;4996861;28;20030;-90
2024/02/17 05:59:59;;;;;;;26.15;15.07;;;9.80;99.90;;;;;;4996547;28;20030;-91
2024/02/17 06:02:24;;;;;;;26.95;14.30;;;9.70;99.90;;;;;;4996339;28;20066;-90
2024/02/17 06:04:50;;;;;;;25.60;14.65;;;9.70;99.90;;;;;;4995995;28;20065;-90
2024/02/17 06:07:16;;;;;;;27.67;14.32;;;9.70;99.90;;;;;;4996844;28;20371;-91
2024/02/17 06:09:42;;;;;;;29.73;15.63;;;9.70;99.90;;;;;;4996664;28;20482;-90
2024/02/17 06:12:07;;;;;;;31.10;14.65;;;9.70;99.90;;;;;;4995198;28;20037;-90
2024/02/17 06:14:33;;;;;;;28.10;15.32;;;9.70;99.90;;;;;;4993157;28;20050;-90
2024/02/17 06:17:04;;;;;;;26.35;14.60;;;9.70;99.90;;;;;;4994831;28;20065;-91
2024/02/17 06:22:14;;;;;;;22.20;12.98;;;9.70;99.90;;;;;;4989155;28;20134;-91
2024/02/17 06:24:39;;;;;;;29.08;14.68;;;9.70;99.90;;;;;;4993938;28;20113;-91
2024/02/17 06:27:05;;;;;;;26.05;13.75;;;9.70;99.90;;;;;;4992106;28;20379;-91
2024/02/17 06:29:30;;;;;;;30.08;15.18;;;9.70;99.90;;;;;;4993519;28;20046;-90
2024/02/17 06:31:56;;;;;;;29.55;14.82;;;9.70;99.90;;;;;;4990563;28;20026;-90
2024/02/17 06:34:21;;;;;;;29.10;16.15;;;9.70;99.90;;;;;;4994176;28;20065;-91
2024/02/17 06:36:47;;;;;;;25.20;14.73;;;9.70;99.90;;;;;;4993847;28;20030;-91
2024/02/17 06:39:13;;;;;;;28.75;14.25;;;9.60;99.90;;;;;;4993077;28;20165;-91
2024/02/17 06:41:38;;;;;;;29.42;14.10;;;9.70;99.90;;;;;;4995134;28;20459;-91
2024/02/17 06:44:04;;;;;;;28.30;14.32;;;9.60;99.90;;;;;;4978239;28;20455;-91
2024/02/17 06:46:30;;;;;;;27.77;14.00;;;9.60;99.90;;;;;;4968703;28;20126;-90
2024/02/17 06:48:56;;;;;;;30.80;14.45;;;9.60;99.90;;;;;;4992614;28;20022;-90
2024/02/17 06:51:22;;;;;;;26.38;13.73;;;9.60;99.90;;;;;;4993176;28;20020;-90
2024/02/17 06:53:48;;;;;;;35.05;14.85;;;9.60;99.90;;;;;;4993788;28;20026;-91
2024/02/17 06:56:14;;;;;;;26.10;13.40;;;9.60;99.90;;;;;;4979342;28;20031;-91
2024/02/17 06:58:41;;;;;;;24.50;13.52;;;9.60;99.90;;;;;;4977656;28;20400;-91
2024/02/17 07:01:07;;;;;;;23.80;13.43;;;9.60;99.90;;;;;;4992447;28;20095;-91
2024/02/17 07:03:33;;;;;;;24.27;13.32;;;9.60;99.90;;;;;;4975635;28;20116;-90
2024/02/17 07:05:58;;;;;;;27.80;13.50;;;9.60;99.90;;;;;;4978558;28;20038;-91
2024/02/17 07:08:24;;;;;;;24.35;12.82;;;9.60;99.90;;;;;;4977496;28;20061;-91
2024/02/17 07:10:49;;;;;;;23.75;13.23;;;9.60;99.90;;;;;;4975190;28;20511;-91
2024/02/17 07:13:15;;;;;;;30.77;14.10;;;9.60;99.90;;;;;;4979200;28;20053;-90
2024/02/17 07:15:42;;;;;;;25.63;13.80;;;9.60;99.90;;;;;;4976980;28;20145;-90
2024/02/17 07:18:08;;;;;;;30.27;14.65;;;9.60;99.90;;;;;;4970813;28;20026;-91
2024/02/17 07:20:34;;;;;;;24.83;12.52;;;9.60;99.90;;;;;;4979343;28;20030;-91
2024/02/17 07:23:00;;;;;;;26.58;13.43;;;9.60;99.90;;;;;;4978450;28;20054;-91
2024/02/17 07:25:29;;;;;;;24.92;13.07;;;9.70;99.90;;;;;;4976965;28;20439;-90
2024/02/17 07:27:59;;;;;;;30.08;14.23;;;9.60;99.90;;;;;;4978142;28;20402;-90
2024/02/17 07:30:27;;;;;;;23.55;13.15;;;9.60;99.90;;;;;;4979464;28;20060;-90
2024/02/17 07:32:53;;;;;;;23.33;13.43;;;9.60;99.90;;;;;;4973713;28;20482;-91
2024/02/17 07:35:20;;;;;;;24.55;13.93;;;9.70;99.90;;;;;;4967000;28;20035;-90
2024/02/17 07:37:45;;;;;;;27.50;13.15;;;9.70;99.90;;;;;;4977758;28;20026;-91
2024/02/17 07:40:11;;;;;;;22.92;13.05;;;9.70;99.90;;;;;;4986488;28;20142;-89
2024/02/17 07:42:37;;;;;;;27.77;12.90;;;9.80;99.90;;;;;;4972487;28;20114;-91
2024/02/17 07:45:04;;;;;;;28.95;12.70;;;9.80;99.90;;;;;;4980727;28;20031;-90
2024/02/17 07:47:33;;;;;;;24.80;12.65;;;9.90;99.90;;;;;;4979116;28;20137;-91
2024/02/17 07:50:07;;;;;;;19.77;11.82;;;9.90;99.90;;;;;;4979078;28;20034;-90
2024/02/17 07:52:32;;;;;;;29.08;12.10;;;9.90;99.90;;;;;;4978613;28;20034;-90
2024/02/17 07:54:58;;;;;;;24.95;11.25;;;9.90;99.90;;;;;;4977992;28;20019;-90
2024/02/17 07:57:24;;;;;;;27.35;12.07;;;9.90;99.90;;;;;;4977371;28;20479;-90
2024/02/17 07:59:50;;;;;;;24.17;11.20;;;9.90;99.90;;;;;;4978099;28;20026;-90
2024/02/17 08:02:16;;;;;;;25.25;10.88;;;9.90;99.90;;;;;;4975476;28;20532;-90
2024/02/17 08:04:42;;;;;;;21.73;9.75;;;10.00;99.90;;;;;;4977006;28;20026;-90
2024/02/17 08:07:09;;;;;;;23.65;11.32;;;10.00;99.90;;;;;;4976476;28;20034;-90
2024/02/17 08:09:34;;;;;;;17.83;9.70;;;10.00;99.90;;;;;;4976321;28;20022;-90
2024/02/17 08:12:00;;;;;;;25.77;11.27;;;10.00;99.90;;;;;;4976316;28;20042;-89
2024/02/17 08:14:25;;;;;;;21.60;10.98;;;10.00;99.90;;;;;;4963820;28;20488;-90
2024/02/17 08:16:51;;;;;;;16.17;9.93;;;10.00;99.90;;;;;;4965458;28;20034;-91
2024/02/17 08:19:17;;;;;;;24.20;10.15;;;10.00;99.90;;;;;;4960790;28;20063;-87
2024/02/17 08:21:42;;;;;;;23.02;10.40;;;10.00;99.90;;;;;;4978300;28;20038;-90
2024/02/17 08:24:08;;;;;;;20.55;9.40;;;10.10;99.90;;;;;;4965951;28;20041;-90
2024/02/17 08:26:33;;;;;;;17.67;9.35;;;10.10;99.90;;;;;;4962585;28;20042;-90
2024/02/17 08:28:59;;;;;;;21.42;10.52;;;10.10;99.90;;;;;;4973549;28;20201;-90
2024/02/17 08:31:25;;;;;;;24.25;10.27;;;10.10;99.90;;;;;;4975608;28;20030;-90
2024/02/17 08:33:51;;;;;;;22.08;9.77;;;10.20;99.90;;;;;;4979775;28;20114;-90
2024/02/17 08:36:16;;;;;;;18.58;9.40;;;10.30;99.90;;;;;;4965909;28;20141;-90
2024/02/17 08:38:42;;;;;;;22.27;9.95;;;10.20;99.90;;;;;;4971371;28;20033;-88
2024/02/17 08:41:08;;;;;;;22.48;10.30;;;10.30;99.90;;;;;;4980628;28;20042;-89
2024/02/17 08:43:33;;;;;;;19.98;9.93;;;10.30;99.90;;;;;;4992311;28;20027;-89
2024/02/17 08:45:59;;;;;;;19.20;9.30;;;10.40;99.90;;;;;;4994235;28;20031;-88
2024/02/17 08:48:25;;;;;;;20.98;9.77;;;10.50;99.90;;;;;;4990973;28;20121;-89
2024/02/17 08:50:51;;;;;;;22.90;9.82;;;10.40;99.90;;;;;;5001030;28;20027;-89
2024/02/17 08:53:18;;;;;;;23.17;10.13;;;10.50;99.90;;;;;;4985190;28;20101;-89
2024/02/17 08:55:43;;;;;;;19.00;9.35;;;10.50;99.90;;;;;;4992722;28;20049;-89
2024/02/17 08:58:09;;;;;;;17.98;9.32;;;10.50;99.90;;;;;;5007021;28;20537;-90
2024/02/17 09:00:38;;;;;;;16.08;9.23;;;10.50;99.90;;;;;;4994926;28;20077;-89
2024/02/17 09:03:04;;;;;;;17.10;9.45;;;10.60;99.90;;;;;;4994689;28;20022;-89
2024/02/17 09:05:30;;;;;;;19.25;9.10;;;10.60;99.90;;;;;;4981071;28;20035;-89
2024/02/17 09:07:55;;;;;;;19.92;8.45;;;10.60;99.90;;;;;;4992231;28;20034;-88
2024/02/17 09:10:21;;;;;;;17.17;9.00;;;10.70;99.90;;;;;;5005810;28;20027;-88
2024/02/17 09:12:46;;;;;;;18.65;9.23;;;10.60;99.90;;;;;;5004044;28;20030;-88
2024/02/17 09:15:12;;;;;;;19.63;8.38;;;10.60;99.90;;;;;;4990462;28;20089;-89
2024/02/17 09:17:38;;;;;;;16.05;8.95;;;10.70;99.90;;;;;;4997638;28;20023;-89
2024/02/17 09:20:04;;;;;;;19.27;8.55;;;10.70;99.90;;;;;;4997506;28;20036;-89
2024/02/17 09:22:30;;;;;;;16.42;7.80;;;10.70;99.90;;;;;;4993321;28;20399;-88
2024/02/17 09:24:56;;;;;;;15.95;7.85;;;10.80;99.90;;;;;;4989915;28;20026;-89
2024/02/17 09:27:22;;;;;;;24.05;9.00;;;10.80;99.90;;;;;;5014034;28;20034;-89
2024/02/17 09:29:47;;;;;;;14.40;7.93;;;10.90;99.90;;;;;;4997921;28;20113;-89
2024/02/17 09:32:14;;;;;;;21.20;8.90;;;10.90;99.90;;;;;;4998431;28;20026;-89
2024/02/17 09:34:40;;;;;;;16.17;9.15;;;10.90;99.90;;;;;;4996196;28;20097;-88
2024/02/17 09:37:08;;;;;;;16.63;8.60;;;11.00;99.90;;;;;;4998046;28;20041;-89
2024/02/17 09:39:35;;;;;;;17.48;8.93;;;11.00;99.90;;;;;;4993409;28;20026;-88
2024/02/17 09:42:01;;;;;;;19.23;8.85;;;11.10;99.90;;;;;;4981761;28;20116;-89
2024/02/17 09:44:27;;;;;;;17.92;9.20;;;11.10;99.90;;;;;;4978612;28;20023;-88
2024/02/17 09:46:53;;;;;;;23.60;9.27;;;11.20;99.90;;;;;;4979623;28;20035;-89
2024/02/17 09:49:24;;;;;;;15.25;8.23;;;11.30;99.90;;;;;;4977874;28;20022;-89
2024/02/17 09:51:50;;;;;;;17.77;8.65;;;11.40;99.90;;;;;;4978186;28;22006;-89
2024/02/17 09:54:20;;;;;;;20.60;9.18;;;11.40;99.90;;;;;;4980940;28;20043;-88
2024/02/17 09:56:48;;;;;;;15.40;8.32;;;11.40;99.90;;;;;;4960594;28;20589;-89
2024/02/17 09:59:14;;;;;;;16.70;7.93;;;11.40;99.90;;;;;;4972271;28;20037;-90
2024/02/17 10:01:39;;;;;;;17.15;9.65;;;11.50;99.90;;;;;;4966897;28;20027;-89
2024/02/17 10:04:06;;;;;;;22.73;8.85;;;11.40;99.90;;;;;;4958329;28;20023;-89
2024/02/17 10:06:32;;;;;;;17.13;8.35;;;11.50;99.90;;;;;;4956222;28;20049;-90
2024/02/17 10:08:57;;;;;;;22.08;9.02;;;11.50;99.90;;;;;;4953969;28;20036;-89
2024/02/17 10:11:23;;;;;;;16.35;8.82;;;11.50;99.90;;;;;;4957437;28;20117;-88
2024/02/17 10:14:00;;;;;;;19.10;8.27;;;11.60;99.90;;;;;;4957319;28;21632;-90
2024/02/17 10:16:29;;;;;;;14.27;8.45;;;11.70;99.90;;;;;;4956604;28;20037;-90
2024/02/17 10:19:00;;;;;;;15.07;7.80;;;11.70;99.90;;;;;;4955196;28;20026;-90
2024/02/17 10:21:26;;;;;;;20.05;8.57;;;11.80;99.90;;;;;;4970382;28;20039;-89
2024/02/17 10:23:52;;;;;;;17.83;8.52;;;11.80;99.90;;;;;;4957934;28;20528;-89
2024/02/17 10:26:18;;;;;;;18.17;8.23;;;11.90;99.90;;;;;;4953663;28;20042;-89
2024/02/17 10:28:58;;;;;;;14.07;7.85;;;11.90;99.90;;;;;;4961127;28;20037;-90
2024/02/17 10:31:24;;;;;;;19.30;8.48;;;11.90;99.90;;;;;;4960765;28;20035;-89
2024/02/17 10:33:50;;;;;;;22.45;9.15;;;12.00;99.90;;;;;;4969740;28;20513;-90
2024/02/17 10:36:19;;;;;;;17.58;8.25;;;12.10;99.90;;;;;;4955421;28;20390;-89
2024/02/17 10:38:45;;;;;;;16.13;8.98;;;12.10;99.90;;;;;;4957910;28;20069;-90
2024/02/17 10:41:11;;;;;;;16.90;9.05;;;12.10;99.90;;;;;;4967446;28;20046;-90
2024/02/17 10:43:41;;;;;;;16.67;8.88;;;12.10;99.90;;;;;;4986524;28;20502;-89
2024/02/17 10:46:14;;;;;;;15.93;8.48;;;12.10;99.90;;;;;;4970887;28;20045;-90
2024/02/17 10:48:46;;;;;;;15.70;8.27;;;12.10;99.90;;;;;;4987179;28;20030;-90
2024/02/17 10:51:13;;;;;;;;;;;12.20;99.90;;;;;;4973179;28;20070;-90
2024/02/17 10:53:47;;;;;;;20.58;8.88;;;12.10;99.90;;;;;;4973915;28;19914;-90
2024/02/17 10:56:17;;;;;;;21.48;9.75;;;12.20;99.90;;;;;;4973176;28;20487;-90
2024/02/17 10:58:47;;;;;;;15.48;8.20;;;12.20;99.90;;;;;;4969105;28;20030;-89
2024/02/17 11:01:14;;;;;;;25.48;10.18;;;12.20;99.90;;;;;;4975978;28;20479;-89
2024/02/17 11:03:42;;;;;;;17.77;9.02;;;12.20;99.90;;;;;;4998878;28;20026;-90
2024/02/17 11:06:11;;;;;;;21.58;9.15;;;12.20;99.90;;;;;;4972328;28;20076;-90
2024/02/17 11:08:37;;;;;;;19.13;8.70;;;12.30;99.90;;;;;;4990891;28;20031;-90
2024/02/17 11:11:28;;;;;;;17.20;8.48;;;12.20;99.90;;;;;;4978203;28;20038;-89
2024/02/17 11:13:55;;;;;;;15.35;8.55;;;12.20;99.90;;;;;;4974293;28;20375;-89
2024/02/17 11:16:23;;;;;;;15.27;8.45;;;12.30;99.90;;;;;;4980720;28;20030;-89
2024/02/17 11:18:51;;;;;;;17.77;8.93;;;12.30;99.90;;;;;;4974851;28;20034;-89
2024/02/17 11:21:25;;;;;;;14.48;8.82;;;12.40;99.90;;;;;;4975967;28;20375;-89
2024/02/17 11:23:51;;;;;;;19.02;9.50;;;12.40;99.90;;;;;;4974358;28;20141;-89
2024/02/17 11:26:18;;;;;;;20.42;9.50;;;12.40;99.90;;;;;;4987538;28;20030;-89
2024/02/17 11:28:46;;;;;;;16.45;9.55;;;12.50;99.90;;;;;;4992774;28;20031;-88
2024/02/17 11:31:12;;;;;;;18.33;9.77;;;12.50;99.90;;;;;;4980382;28;20086;-89
2024/02/17 11:33:37;;;;;;;18.42;9.77;;;12.50;99.90;;;;;;4990037;28;20038;-89
2024/02/17 11:36:06;;;;;;;15.52;8.88;;;12.50;99.90;;;;;;4983445;28;20030;-89
2024/02/17 11:38:32;;;;;;;24.02;10.00;;;12.50;99.90;;;;;;4977409;28;20035;-90
2024/02/17 11:41:00;;;;;;;19.15;9.95;;;12.60;99.90;;;;;;4973546;28;20054;-89
2024/02/17 11:43:28;;;;;;;20.38;9.70;;;12.60;99.90;;;;;;4994972;28;20030;-89
2024/02/17 11:45:55;;;;;;;20.83;9.43;;;12.60;99.90;;;;;;4988575;28;20034;-90
2024/02/17 11:48:21;;;;;;;17.42;10.23;;;12.70;99.90;;;;;;4995654;28;20152;-90
2024/02/17 11:50:47;;;;;;;16.73;10.05;;;12.70;99.90;;;;;;4995727;28;20028;-90
2024/02/17 11:53:13;;;;;;;19.30;9.85;;;12.80;99.90;;;;;;4994578;28;20532;-89
2024/02/17 11:55:39;;;;;;;19.20;9.07;;;12.80;99.90;;;;;;5001036;28;20077;-88
2024/02/17 11:58:08;;;;;;;20.35;10.00;;;12.90;99.90;;;;;;4995619;28;20026;-90
2024/02/17 12:00:38;;;;;;;20.88;10.73;;;13.00;99.90;;;;;;4994689;28;20030;-89
2024/02/17 12:03:04;;;;;;;17.67;9.88;;;13.00;99.90;;;;;;4993271;28;20073;-89
2024/02/17 12:05:30;;;;;;;21.35;9.85;;;13.00;99.90;;;;;;4994708;28;20379;-89
2024/02/17 12:07:55;;;;;;;22.95;11.20;;;13.00;99.90;;;;;;4995187;28;20034;-89
2024/02/17 12:10:23;;;;;;;19.20;10.43;;;13.00;99.90;;;;;;4994913;28;20054;-90
2024/02/17 12:12:49;;;;;;;16.70;9.88;;;13.00;99.90;;;;;;4993059;28;20034;-89
2024/02/17 12:15:14;;;;;;;22.08;10.77;;;13.00;99.90;;;;;;4996435;28;20489;-89
2024/02/17 12:17:44;;;;;;;17.83;10.00;;;13.10;99.90;;;;;;4993697;28;20044;-89
2024/02/17 12:20:15;;;;;;;23.20;10.73;;;13.20;99.90;;;;;;4994163;28;20026;-89
2024/02/17 12:22:46;;;;;;;19.65;10.52;;;13.20;99.90;;;;;;4992818;28;20040;-90
2024/02/17 12:25:16;;;;;;;17.73;9.77;;;13.30;99.90;;;;;;4998968;28;20049;-89
2024/02/17 12:27:48;;;;;;;19.60;11.15;;;13.30;99.90;;;;;;4999219;28;20337;-89
2024/02/17 12:30:15;;;;;;;17.73;9.95;;;13.40;99.90;;;;;;4994307;28;20068;-89
2024/02/17 12:32:41;;;;;;;19.38;10.73;;;13.40;99.90;;;;;;4991400;28;20031;-90
2024/02/17 12:35:17;;;;;;;17.35;9.75;;;13.40;99.90;;;;;;4992223;28;20031;-89